Terminal Aerodrome Forecast
Issued by NWS Tuscon, AZ

Home | Current Version | Previous Version | Text Only | Print | Product List | Glossary On
Versions: 1 2 3 4 5 6 7 8 9 10 11 12 13
000
FTUS45 KTWC 292320
TAFDUG
TAF
KDUG 292320Z 3000/3024 14010G15KT P6SM VCTS SCT070CB BKN130
     FM300300 04008KT P6SM SCT070 BKN110
     FM300900 01005KT P6SM SCT070
     FM301900 30008KT P6SM VCSH SCT080 BKN120=

USA.gov is the U.S. government's official web portal to all federal, state and local government web resources and services.